createdAt,value
2018-07-26T00:01:05.285Z,11.60
2018-07-26T00:03:33.742Z,9.93
2018-07-26T00:06:02.151Z,16.53
2018-07-26T00:08:30.521Z,9.50
2018-07-26T00:10:58.897Z,11.60
2018-07-26T00:13:27.722Z,10.30
2018-07-26T00:15:56.168Z,10.13
2018-07-26T00:18:24.663Z,9.20
2018-07-26T00:20:53.117Z,9.77
2018-07-26T00:23:21.662Z,12.57
2018-07-26T00:25:50.079Z,10.43
2018-07-26T00:28:18.582Z,9.13
2018-07-26T00:30:46.964Z,9.93
2018-07-26T00:33:15.352Z,10.37
2018-07-26T00:35:43.712Z,9.83
2018-07-26T00:38:12.149Z,9.60
2018-07-26T00:40:40.548Z,8.87
2018-07-26T00:43:08.983Z,9.33
2018-07-26T00:45:37.372Z,11.57
2018-07-26T00:48:05.816Z,10.10
2018-07-26T00:50:34.204Z,10.90
2018-07-26T00:53:02.622Z,13.27
2018-07-26T00:55:31.005Z,14.37
2018-07-26T00:57:59.460Z,12.07
2018-07-26T01:00:28.786Z,12.20
2018-07-26T01:02:57.299Z,10.10
2018-07-26T01:05:25.680Z,13.50
2018-07-26T01:07:54.099Z,11.43
2018-07-26T01:10:22.531Z,11.57
2018-07-26T01:12:50.967Z,11.20
2018-07-26T01:15:19.379Z,11.93
2018-07-26T01:17:47.774Z,10.60
2018-07-26T01:20:16.181Z,13.67
2018-07-26T01:22:44.567Z,10.93
2018-07-26T01:25:13.028Z,11.70
2018-07-26T01:27:42.295Z,11.87
2018-07-26T01:30:11.344Z,11.60
2018-07-26T01:32:40.653Z,11.17
2018-07-26T01:35:09.190Z,18.43
2018-07-26T01:37:37.627Z,11.53
2018-07-26T01:40:05.743Z,11.00
2018-07-26T01:42:49.135Z,12.20
2018-07-26T01:45:17.515Z,11.40
2018-07-26T01:47:46.231Z,11.10
2018-07-26T01:50:14.625Z,12.73
2018-07-26T01:52:43.027Z,11.57
2018-07-26T01:55:11.471Z,11.67
2018-07-26T01:57:39.861Z,11.73
2018-07-26T02:00:08.298Z,15.57
2018-07-26T02:02:36.720Z,16.10
2018-07-26T02:05:05.432Z,10.40
2018-07-26T02:07:33.873Z,10.93
2018-07-26T02:10:02.285Z,11.20
2018-07-26T02:12:30.416Z,12.10
2018-07-26T02:14:58.823Z,10.77
2018-07-26T02:17:27.212Z,10.77
2018-07-26T02:19:55.608Z,12.73
2018-07-26T02:22:24.109Z,12.80
2018-07-26T02:24:52.579Z,13.30
2018-07-26T02:27:20.983Z,12.10
2018-07-26T02:29:49.384Z,11.77
2018-07-26T02:32:17.771Z,11.80
2018-07-26T02:34:46.203Z,11.87
2018-07-26T02:37:14.593Z,12.93
2018-07-26T02:39:43.036Z,13.90
2018-07-26T02:42:11.431Z,11.70
2018-07-26T02:44:39.836Z,13.73
2018-07-26T02:47:08.215Z,12.27
2018-07-26T02:49:36.626Z,14.77
2018-07-26T02:52:05.148Z,13.13
2018-07-26T02:54:33.575Z,12.07
2018-07-26T02:57:01.961Z,12.63
2018-07-26T02:59:30.340Z,13.23
2018-07-26T03:01:58.856Z,12.40
2018-07-26T03:04:27.385Z,13.50
2018-07-26T03:06:55.773Z,12.70
2018-07-26T03:09:24.193Z,13.57
2018-07-26T03:11:52.606Z,13.37
2018-07-26T03:14:21.112Z,13.30
2018-07-26T03:16:49.524Z,12.27
2018-07-26T03:19:18.010Z,14.33
2018-07-26T03:21:46.380Z,17.83
2018-07-26T03:24:14.845Z,12.67
2018-07-26T03:26:43.240Z,13.90
2018-07-26T03:29:11.641Z,14.10
2018-07-26T03:31:40.148Z,15.90
2018-07-26T03:34:08.651Z,15.17
2018-07-26T03:36:37.075Z,15.47
2018-07-26T03:39:07.905Z,17.17
2018-07-26T03:41:36.436Z,15.37
2018-07-26T03:44:05.073Z,15.70
2018-07-26T03:46:33.560Z,13.27
2018-07-26T03:49:01.993Z,14.97
2018-07-26T03:51:30.462Z,14.17
2018-07-26T03:53:58.943Z,13.70
2018-07-26T03:56:27.428Z,14.17
2018-07-26T03:58:55.957Z,13.50
2018-07-26T04:01:24.446Z,21.90
2018-07-26T04:03:52.891Z,14.33
2018-07-26T04:06:21.552Z,15.47
2018-07-26T04:08:50.064Z,17.40
2018-07-26T04:11:18.530Z,17.50
2018-07-26T04:13:47.001Z,18.80
2018-07-26T04:16:15.550Z,14.43
2018-07-26T04:18:43.999Z,19.27
2018-07-26T04:21:12.624Z,15.70
2018-07-26T04:23:41.034Z,15.97
2018-07-26T04:26:09.590Z,18.80
2018-07-26T04:28:38.046Z,19.97
2018-07-26T04:31:06.544Z,17.10
2018-07-26T04:33:34.974Z,19.30
2018-07-26T04:36:03.561Z,18.70
2018-07-26T04:38:32.071Z,17.33
2018-07-26T04:41:00.648Z,21.27
2018-07-26T04:43:29.112Z,19.10
2018-07-26T04:45:57.559Z,17.87
2018-07-26T04:48:26.087Z,27.77
2018-07-26T04:50:54.561Z,25.87
2018-07-26T04:53:23.045Z,36.87
2018-07-26T04:55:51.533Z,37.27
2018-07-26T04:58:19.980Z,25.00
2018-07-26T05:00:48.604Z,17.10
2018-07-26T05:03:17.136Z,17.80
2018-07-26T05:05:45.623Z,15.57
2018-07-26T05:08:14.182Z,14.53
2018-07-26T05:10:42.547Z,15.10
2018-07-26T05:13:11.004Z,15.07
2018-07-26T05:15:39.596Z,14.60
2018-07-26T05:18:08.858Z,15.53
2018-07-26T05:20:37.394Z,21.70
2018-07-26T05:23:05.915Z,16.10
2018-07-26T05:25:34.456Z,13.77
2018-07-26T05:28:02.660Z,17.03
2018-07-26T05:30:31.171Z,10.67
2018-07-26T05:32:59.707Z,10.40
2018-07-26T05:35:28.176Z,12.17
2018-07-26T05:37:56.729Z,10.87
2018-07-26T05:40:25.181Z,9.90
2018-07-26T05:42:53.722Z,19.93
2018-07-26T05:45:22.237Z,12.33
2018-07-26T05:47:50.815Z,11.67
2018-07-26T05:50:19.283Z,8.73
2018-07-26T05:52:48.017Z,8.30
2018-07-26T05:55:16.472Z,9.50
2018-07-26T05:57:44.986Z,9.27
2018-07-26T06:00:14.558Z,7.90
2018-07-26T06:02:44.123Z,11.67
2018-07-26T06:05:12.592Z,7.73
2018-07-26T06:07:41.079Z,8.97
2018-07-26T06:10:10.220Z,11.80
2018-07-26T06:12:38.700Z,11.97
2018-07-26T06:15:09.735Z,9.53
2018-07-26T06:17:38.196Z,42.03
2018-07-26T06:20:08.358Z,11.87
2018-07-26T06:22:36.808Z,10.27
2018-07-26T06:25:05.830Z,10.90
2018-07-26T06:27:34.281Z,11.30
2018-07-26T06:30:02.764Z,15.10
2018-07-26T06:32:31.226Z,14.13
2018-07-26T06:34:59.636Z,13.80
2018-07-26T06:37:28.107Z,11.80
2018-07-26T06:39:56.577Z,15.73
2018-07-26T06:42:25.042Z,14.70
2018-07-26T06:44:53.490Z,19.53
2018-07-26T06:47:21.992Z,13.57
2018-07-26T06:49:50.400Z,10.50
2018-07-26T06:52:18.887Z,11.70
2018-07-26T06:54:47.262Z,9.83
2018-07-26T06:57:15.817Z,10.10
2018-07-26T06:59:44.487Z,10.90
2018-07-26T07:02:12.991Z,8.87
2018-07-26T07:04:41.433Z,13.70
2018-07-26T07:07:09.865Z,10.97
2018-07-26T07:09:38.350Z,11.33
2018-07-26T07:12:06.832Z,12.27
2018-07-26T07:14:35.285Z,11.37
2018-07-26T07:17:03.731Z,9.30
2018-07-26T07:19:32.192Z,9.17
2018-07-26T07:22:00.647Z,8.83
2018-07-26T07:24:29.098Z,7.70
2018-07-26T07:26:57.651Z,6.47
2018-07-26T07:29:26.089Z,4.83
2018-07-26T07:31:54.606Z,4.10
2018-07-26T07:34:23.077Z,3.92
2018-07-26T07:36:51.525Z,5.00
2018-07-26T07:39:19.940Z,4.78
2018-07-26T07:41:48.417Z,3.12
2018-07-26T07:44:16.873Z,5.78
2018-07-26T07:46:45.323Z,3.30
2018-07-26T07:49:13.715Z,2.55
2018-07-26T07:51:42.153Z,3.20
2018-07-26T07:56:22.613Z,2.52
2018-07-26T07:58:51.429Z,2.95
2018-07-26T08:01:19.963Z,2.55
2018-07-26T08:03:48.442Z,2.12
2018-07-26T08:06:17.634Z,1.85
2018-07-26T08:08:46.250Z,2.40
2018-07-26T08:11:15.508Z,2.10
2018-07-26T08:13:44.161Z,3.00
2018-07-26T08:16:12.771Z,3.25
2018-07-26T08:18:41.392Z,2.33
2018-07-26T08:21:09.949Z,1.77
2018-07-26T08:23:38.685Z,1.80
2018-07-26T08:26:07.460Z,4.50
2018-07-26T08:28:36.154Z,3.77
2018-07-26T08:31:11.169Z,5.90
2018-07-26T08:33:39.948Z,5.20
2018-07-26T08:36:08.560Z,5.12
2018-07-26T08:38:37.197Z,5.75
2018-07-26T08:41:12.472Z,1.65
2018-07-26T08:43:41.208Z,3.42
2018-07-26T08:46:09.840Z,2.42
2018-07-26T08:48:38.550Z,3.40
2018-07-26T08:51:07.273Z,1.35
2018-07-26T08:53:35.945Z,1.22
2018-07-26T08:56:04.222Z,1.67
2018-07-26T08:58:32.903Z,3.45
2018-07-26T09:01:01.531Z,2.60
2018-07-26T09:03:30.141Z,1.20
2018-07-26T09:05:58.806Z,1.70
2018-07-26T09:08:27.543Z,1.20
2018-07-26T09:10:56.367Z,2.33
2018-07-26T09:13:25.058Z,4.05
2018-07-26T09:15:53.763Z,10.55
2018-07-26T09:18:22.446Z,1.47
2018-07-26T09:20:51.013Z,2.90
2018-07-26T09:23:19.750Z,1.72
2018-07-26T09:25:48.229Z,2.52
2018-07-26T09:28:16.857Z,3.15
2018-07-26T09:30:45.350Z,1.67
2018-07-26T09:33:13.998Z,2.58
2018-07-26T09:35:42.244Z,4.00
2018-07-26T09:38:11.101Z,3.87
2018-07-26T09:40:39.659Z,2.52
2018-07-26T09:43:08.930Z,1.65
2018-07-26T09:45:37.418Z,3.50
2018-07-26T09:48:05.948Z,4.08
2018-07-26T09:50:34.490Z,6.37
2018-07-26T09:53:02.988Z,4.23
2018-07-26T09:55:31.503Z,3.67
2018-07-26T09:58:00.331Z,6.70
2018-07-26T10:00:34.174Z,4.20
2018-07-26T10:03:02.829Z,4.73
2018-07-26T10:05:31.390Z,5.23
2018-07-26T10:07:59.920Z,5.33
2018-07-26T10:10:28.456Z,12.53
2018-07-26T10:12:57.012Z,4.73
2018-07-26T10:15:25.547Z,5.30
2018-07-26T10:17:53.973Z,9.97
2018-07-26T10:20:22.599Z,4.00
2018-07-26T10:22:51.295Z,10.20
2018-07-26T10:25:20.070Z,3.83
2018-07-26T10:27:49.005Z,4.37
2018-07-26T10:30:17.663Z,4.20
2018-07-26T10:32:46.110Z,3.87
2018-07-26T10:35:14.963Z,7.13
2018-07-26T10:37:43.489Z,6.37
2018-07-26T10:40:12.103Z,5.60
2018-07-26T10:42:40.550Z,8.53
2018-07-26T10:45:09.616Z,3.20
2018-07-26T10:47:38.346Z,10.50
2018-07-26T10:50:08.858Z,4.27
2018-07-26T10:52:37.393Z,5.80
2018-07-26T10:55:07.319Z,5.33
2018-07-26T10:57:37.022Z,4.20
2018-07-26T11:00:06.590Z,3.43
2018-07-26T11:02:35.186Z,6.20
2018-07-26T11:05:04.581Z,3.13
2018-07-26T11:07:33.125Z,4.57
2018-07-26T11:10:01.703Z,3.57
2018-07-26T11:12:30.231Z,4.50
2018-07-26T11:15:09.578Z,3.20
2018-07-26T11:17:38.178Z,3.07
2018-07-26T11:20:06.680Z,4.27
2018-07-26T11:22:35.167Z,18.90
2018-07-26T11:25:03.648Z,3.57
2018-07-26T11:27:32.168Z,3.10
2018-07-26T11:30:00.767Z,8.13
2018-07-26T11:32:29.373Z,9.40
2018-07-26T11:34:57.887Z,7.73
2018-07-26T11:37:26.507Z,5.77
2018-07-26T11:39:55.349Z,3.60
2018-07-26T11:42:23.887Z,6.20
2018-07-26T11:44:52.475Z,3.93
2018-07-26T11:47:21.189Z,8.77
2018-07-26T11:49:49.706Z,4.77
2018-07-26T11:52:18.191Z,3.63
2018-07-26T11:54:46.718Z,4.30
2018-07-26T11:57:15.299Z,4.40
2018-07-26T11:59:43.826Z,3.20
2018-07-26T12:02:12.670Z,4.40
2018-07-26T12:04:41.321Z,4.90
2018-07-26T12:07:09.782Z,5.00
2018-07-26T12:09:39.325Z,4.70
2018-07-26T12:12:09.278Z,6.83
2018-07-26T12:14:38.158Z,6.37
2018-07-26T12:17:06.754Z,4.87
2018-07-26T12:19:35.581Z,3.53
2018-07-26T12:22:04.210Z,5.40
2018-07-26T12:24:32.967Z,5.23
2018-07-26T12:27:01.505Z,5.30
2018-07-26T12:29:30.358Z,3.77
2018-07-26T12:31:59.017Z,13.30
2018-07-26T12:34:27.669Z,3.20
2018-07-26T12:37:00.129Z,5.30
2018-07-26T12:39:30.042Z,4.10
2018-07-26T12:41:58.597Z,4.17
2018-07-26T12:44:27.234Z,6.83
2018-07-26T12:46:55.779Z,3.70
2018-07-26T12:49:24.312Z,6.47
2018-07-26T12:51:52.743Z,5.80
2018-07-26T12:54:21.225Z,2.80
2018-07-26T12:56:50.013Z,3.23
2018-07-26T12:59:18.603Z,3.90
2018-07-26T13:01:47.169Z,6.67
2018-07-26T13:04:15.709Z,2.70
2018-07-26T13:06:44.216Z,3.03
2018-07-26T13:09:13.092Z,7.70
2018-07-26T13:11:41.704Z,7.90
2018-07-26T13:14:10.431Z,3.90
2018-07-26T13:16:39.018Z,4.27
2018-07-26T13:19:07.805Z,2.73
2018-07-26T13:21:36.428Z,6.57
2018-07-26T13:24:04.582Z,3.70
2018-07-26T13:26:33.159Z,6.30
2018-07-26T13:29:01.699Z,2.60
2018-07-26T13:31:30.371Z,4.00
2018-07-26T13:33:58.889Z,6.33
2018-07-26T13:36:27.331Z,2.90
2018-07-26T13:38:55.801Z,7.13
2018-07-26T13:41:24.399Z,4.57
2018-07-26T13:43:53.028Z,4.40
2018-07-26T13:46:21.524Z,4.13
2018-07-26T13:48:50.068Z,3.43
2018-07-26T13:51:18.544Z,2.93
2018-07-26T13:53:46.989Z,3.63
2018-07-26T13:56:15.464Z,8.17
2018-07-26T13:58:43.929Z,5.30
2018-07-26T14:01:12.518Z,3.30
2018-07-26T14:03:41.024Z,2.87
2018-07-26T14:06:09.477Z,6.53
2018-07-26T14:08:38.250Z,3.20
2018-07-26T14:11:06.851Z,2.90
2018-07-26T14:13:35.432Z,4.17
2018-07-26T14:16:04.600Z,3.67
2018-07-26T14:18:33.001Z,3.03
2018-07-26T14:21:01.770Z,9.50
2018-07-26T14:23:35.646Z,5.73
2018-07-26T14:26:04.090Z,3.70
2018-07-26T14:28:32.997Z,5.40
2018-07-26T14:31:01.785Z,7.63
2018-07-26T14:33:30.746Z,5.70
2018-07-26T14:35:59.727Z,14.67
2018-07-26T14:38:28.304Z,26.00
2018-07-26T14:40:56.938Z,232.80
2018-07-26T14:43:26.413Z,21.40
2018-07-26T14:45:55.505Z,15.77
2018-07-26T14:48:24.042Z,30.87
2018-07-26T14:50:52.716Z,17.97
2018-07-26T14:53:21.173Z,21.17
2018-07-26T14:55:49.793Z,14.00
2018-07-26T14:58:18.646Z,12.23
2018-07-26T15:00:47.077Z,12.03
2018-07-26T15:03:15.657Z,8.90
2018-07-26T15:05:44.514Z,10.23
2018-07-26T15:08:13.308Z,9.80
2018-07-26T15:10:41.820Z,8.63
2018-07-26T15:13:10.275Z,7.57
2018-07-26T15:15:38.794Z,21.83
2018-07-26T15:18:07.351Z,10.13
2018-07-26T15:20:35.931Z,12.60
2018-07-26T15:23:04.434Z,9.00
2018-07-26T15:25:32.820Z,7.70
2018-07-26T15:28:01.294Z,14.67
2018-07-26T15:30:29.793Z,7.23
2018-07-26T15:32:58.269Z,8.43
2018-07-26T15:35:26.625Z,9.70
2018-07-26T15:37:55.060Z,6.77
2018-07-26T15:40:23.525Z,6.30
2018-07-26T15:42:52.009Z,6.83
2018-07-26T15:45:20.394Z,8.33
2018-07-26T15:47:48.833Z,9.13
2018-07-26T15:50:17.335Z,5.10
2018-07-26T15:52:46.641Z,5.53
2018-07-26T15:55:15.106Z,9.03
2018-07-26T15:57:43.524Z,8.10
2018-07-26T16:00:12.288Z,6.70
2018-07-26T16:02:40.732Z,11.20
2018-07-26T16:05:09.235Z,16.47
2018-07-26T16:07:38.466Z,8.80
2018-07-26T16:10:08.500Z,5.33
2018-07-26T16:12:37.053Z,4.83
2018-07-26T16:15:08.030Z,5.93
2018-07-26T16:17:36.762Z,3.47
2018-07-26T16:20:06.957Z,5.60
2018-07-26T16:22:35.481Z,5.00
2018-07-26T16:25:04.733Z,2.70
2018-07-26T16:27:33.328Z,3.10
2018-07-26T16:30:01.886Z,5.43
2018-07-26T16:32:30.380Z,3.10
2018-07-26T16:34:58.852Z,3.30
2018-07-26T16:37:27.501Z,6.03
2018-07-26T16:39:55.670Z,4.03
2018-07-26T16:42:24.183Z,8.03
2018-07-26T16:44:52.820Z,3.07
2018-07-26T16:47:21.435Z,4.80
2018-07-26T16:49:49.971Z,3.40
2018-07-26T16:52:18.514Z,4.03
2018-07-26T16:54:47.060Z,3.97
2018-07-26T16:57:15.525Z,5.20
2018-07-26T16:59:44.033Z,4.03
2018-07-26T17:02:12.678Z,5.10
2018-07-26T17:04:41.264Z,4.63
2018-07-26T17:07:09.937Z,4.50
2018-07-26T17:09:38.529Z,15.90
2018-07-26T17:12:07.530Z,39.33
2018-07-26T17:14:35.963Z,47.10
2018-07-26T17:17:04.602Z,61.43
2018-07-26T17:19:33.386Z,45.87
2018-07-26T17:22:02.200Z,49.97
2018-07-26T17:24:30.764Z,83.60
2018-07-26T17:27:00.164Z,58.70
2018-07-26T17:29:28.712Z,39.93
2018-07-26T17:31:57.265Z,56.93
2018-07-26T17:34:25.717Z,77.27
2018-07-26T17:36:54.420Z,59.53
2018-07-26T17:39:23.139Z,76.87
2018-07-26T17:41:51.818Z,104.33
2018-07-26T17:44:20.504Z,96.33
2018-07-26T17:46:49.029Z,84.77
2018-07-26T17:49:17.611Z,88.63
2018-07-26T17:51:46.260Z,82.40
2018-07-26T17:54:15.042Z,58.47
2018-07-26T17:56:43.343Z,45.50
2018-07-26T17:59:12.226Z,30.13
2018-07-26T18:01:40.869Z,40.83
2018-07-26T18:04:09.579Z,33.53
2018-07-26T18:06:38.437Z,31.03
2018-07-26T18:09:08.570Z,27.87
2018-07-26T18:11:38.165Z,20.63
2018-07-26T18:14:06.820Z,26.30
2018-07-26T18:16:35.576Z,32.40
2018-07-26T18:19:04.346Z,31.97
2018-07-26T18:21:32.947Z,28.80
2018-07-26T18:24:01.586Z,17.03
2018-07-26T18:26:30.223Z,22.37
2018-07-26T18:28:58.873Z,22.73
2018-07-26T18:31:27.145Z,17.47
2018-07-26T18:33:55.805Z,21.47
2018-07-26T18:36:24.401Z,12.10
2018-07-26T18:38:53.037Z,18.83
2018-07-26T18:41:21.613Z,17.47
2018-07-26T18:43:50.322Z,14.73
2018-07-26T18:46:18.829Z,19.03
2018-07-26T18:48:47.504Z,12.67
2018-07-26T18:51:16.214Z,15.70
2018-07-26T18:53:44.910Z,16.40
2018-07-26T18:56:13.662Z,12.23
2018-07-26T18:58:43.496Z,10.60
2018-07-26T19:01:12.197Z,13.40
2018-07-26T19:03:41.073Z,11.70
2018-07-26T19:06:10.089Z,12.40
2018-07-26T19:08:39.024Z,12.70
2018-07-26T19:11:07.899Z,12.30
2018-07-26T19:13:37.034Z,8.60
2018-07-26T19:16:06.749Z,9.57
2018-07-26T19:18:35.517Z,8.60
2018-07-26T19:21:04.421Z,9.53
2018-07-26T19:23:33.276Z,7.53
2018-07-26T19:26:02.580Z,19.60
2018-07-26T19:28:31.988Z,16.00
2018-07-26T19:31:01.311Z,12.03
2018-07-26T19:33:30.891Z,10.20
2018-07-26T19:36:03.814Z,14.60
2018-07-26T19:38:34.160Z,7.93
2018-07-26T19:41:03.849Z,9.37
2018-07-26T19:43:32.521Z,13.00
2018-07-26T19:46:01.420Z,7.87
2018-07-26T19:48:30.072Z,9.10
2018-07-26T19:50:58.768Z,10.93
2018-07-26T19:53:27.465Z,10.43
2018-07-26T19:55:56.541Z,11.03
2018-07-26T19:58:25.164Z,10.63
2018-07-26T20:00:53.844Z,8.30
2018-07-26T20:03:22.506Z,11.60
2018-07-26T20:05:51.362Z,9.77
2018-07-26T20:08:20.030Z,18.80
2018-07-26T20:10:48.675Z,11.57
2018-07-26T20:13:17.270Z,10.23
2018-07-26T20:15:45.966Z,8.07
2018-07-26T20:18:14.665Z,9.57
2018-07-26T20:20:43.397Z,11.90
2018-07-26T20:23:12.089Z,11.53
2018-07-26T20:25:41.124Z,11.93
2018-07-26T20:28:10.391Z,11.37
2018-07-26T20:30:39.140Z,7.87
2018-07-26T20:33:07.443Z,11.23
2018-07-26T20:35:36.111Z,11.03
2018-07-26T20:38:04.927Z,12.07
2018-07-26T20:40:33.635Z,11.07
2018-07-26T20:43:02.439Z,13.80
2018-07-26T20:45:31.195Z,9.50
2018-07-26T20:47:59.811Z,10.43
2018-07-26T20:50:28.527Z,9.07
2018-07-26T20:52:57.223Z,9.27
2018-07-26T20:55:25.918Z,9.07
2018-07-26T20:57:54.694Z,9.00
2018-07-26T21:00:23.350Z,8.90
2018-07-26T21:02:52.067Z,9.37
2018-07-26T21:05:20.813Z,9.40
2018-07-26T21:07:49.076Z,12.50
2018-07-26T21:10:17.812Z,9.10
2018-07-26T21:12:46.471Z,9.23
2018-07-26T21:15:15.105Z,12.20
2018-07-26T21:17:43.756Z,11.17
2018-07-26T21:20:12.475Z,8.97
2018-07-26T21:22:41.091Z,9.13
2018-07-26T21:25:09.787Z,19.10
2018-07-26T21:27:38.409Z,15.33
2018-07-26T21:30:07.458Z,10.17
2018-07-26T21:32:36.220Z,10.63
2018-07-26T21:35:06.009Z,16.67
2018-07-26T21:37:34.736Z,11.00
2018-07-26T21:40:03.501Z,13.60
2018-07-26T21:42:32.157Z,15.63
2018-07-26T21:45:00.949Z,9.43
2018-07-26T21:47:29.528Z,18.87
2018-07-26T21:49:58.224Z,14.33
2018-07-26T21:52:26.921Z,9.50
2018-07-26T21:54:55.734Z,10.80
2018-07-26T21:57:24.409Z,9.00
2018-07-26T21:59:52.987Z,10.50
2018-07-26T22:02:21.746Z,12.77
2018-07-26T22:04:50.761Z,11.83
2018-07-26T22:07:19.634Z,13.87
2018-07-26T22:09:48.335Z,12.87
2018-07-26T22:12:17.006Z,9.17
2018-07-26T22:14:45.682Z,10.30
2018-07-26T22:17:14.357Z,8.77
2018-07-26T22:19:43.142Z,8.83
2018-07-26T22:22:11.882Z,11.57
2018-07-26T22:24:40.584Z,7.07
2018-07-26T22:27:09.297Z,7.33
2018-07-26T22:29:38.016Z,11.97
2018-07-26T22:32:06.732Z,7.93
2018-07-26T22:34:35.105Z,10.53
2018-07-26T22:37:03.829Z,12.53
2018-07-26T22:39:32.562Z,7.50
2018-07-26T22:42:01.234Z,12.13
2018-07-26T22:44:29.824Z,5.50
2018-07-26T22:46:58.525Z,12.30
2018-07-26T22:49:27.321Z,11.13
2018-07-26T22:51:55.938Z,6.23
2018-07-26T22:54:24.593Z,11.00
2018-07-26T22:56:52.889Z,4.43
2018-07-26T22:59:21.488Z,11.27
2018-07-26T23:01:50.205Z,7.13
2018-07-26T23:04:18.937Z,4.87
2018-07-26T23:06:47.632Z,5.83
2018-07-26T23:09:16.223Z,6.10
2018-07-26T23:11:44.868Z,5.53
2018-07-26T23:14:13.577Z,4.73
2018-07-26T23:16:42.254Z,4.57
2018-07-26T23:19:10.862Z,5.33
2018-07-26T23:21:39.526Z,7.77
2018-07-26T23:24:08.121Z,6.57
2018-07-26T23:26:36.737Z,4.77
2018-07-26T23:29:05.644Z,4.57
2018-07-26T23:31:34.429Z,5.30
2018-07-26T23:34:03.289Z,6.50
2018-07-26T23:36:31.900Z,8.63
2018-07-26T23:39:00.481Z,6.83
2018-07-26T23:41:29.193Z,5.17
2018-07-26T23:43:57.787Z,4.30
2018-07-26T23:46:26.503Z,5.30
2018-07-26T23:48:56.180Z,9.10
2018-07-26T23:51:24.875Z,4.17
2018-07-26T23:53:53.536Z,6.30
2018-07-26T23:56:22.225Z,5.57
2018-07-26T23:58:50.806Z,6.30
